createdAt,value
2024-01-15T00:00:06.266Z,100601.34
2024-01-15T00:05:08.375Z,100598.19
2024-01-15T00:10:05.275Z,100590.34
2024-01-15T00:15:01.900Z,100578.22
2024-01-15T00:19:58.499Z,100578.22
2024-01-15T00:24:55.832Z,100585.00
2024-01-15T00:29:52.822Z,100578.19
2024-01-15T00:34:49.633Z,100591.25
2024-01-15T00:39:46.419Z,100582.50
2024-01-15T00:44:43.670Z,100586.13
2024-01-15T00:49:40.367Z,100588.00
2024-01-15T00:54:36.886Z,100570.50
2024-01-15T00:59:33.478Z,100564.66
2024-01-15T01:04:30.752Z,100563.63
2024-01-15T01:09:29.662Z,100563.03
2024-01-15T01:14:26.186Z,100550.75
2024-01-15T01:19:22.995Z,100550.97
2024-01-15T01:24:20.392Z,100536.91
2024-01-15T01:29:16.897Z,100534.47
2024-01-15T01:34:15.064Z,100541.41
2024-01-15T01:39:12.312Z,100530.28
2024-01-15T01:44:09.589Z,100525.31
2024-01-15T01:49:07.037Z,100521.69
2024-01-15T01:54:04.259Z,100537.56
2024-01-15T01:59:01.375Z,100526.22
2024-01-15T02:04:00.198Z,100527.22
2024-01-15T02:08:56.926Z,100524.69
2024-01-15T02:13:53.534Z,100516.31
2024-01-15T02:18:50.212Z,100518.97
2024-01-15T02:23:47.592Z,100512.94
2024-01-15T02:28:44.956Z,100505.19
2024-01-15T02:33:42.701Z,100494.00
2024-01-15T02:38:39.292Z,100489.78
2024-01-15T02:43:36.566Z,100488.88
2024-01-15T02:48:33.487Z,100488.03
2024-01-15T02:53:30.145Z,100488.91
2024-01-15T02:58:26.746Z,100487.22
2024-01-15T03:03:24.577Z,100476.13
2024-01-15T03:08:23.001Z,100467.34
2024-01-15T03:13:19.974Z,100466.31
2024-01-15T03:18:16.553Z,100455.09
2024-01-15T03:23:13.857Z,100451.19
2024-01-15T03:28:10.417Z,100454.44
2024-01-15T03:33:07.040Z,100450.78
2024-01-15T03:38:03.733Z,100443.75
2024-01-15T03:43:00.908Z,100448.50
2024-01-15T03:47:57.496Z,100439.00
2024-01-15T03:52:54.124Z,100439.03
2024-01-15T03:57:50.691Z,100445.84
2024-01-15T04:02:48.019Z,100440.66
2024-01-15T04:07:44.688Z,100440.53
2024-01-15T04:12:41.220Z,100433.53
2024-01-15T04:17:37.812Z,100437.94
2024-01-15T04:22:35.029Z,100453.50
2024-01-15T04:27:31.619Z,100463.81
2024-01-15T04:32:28.242Z,100460.56
2024-01-15T04:37:24.740Z,100474.44
2024-01-15T04:42:22.288Z,100471.03
2024-01-15T04:47:18.812Z,100470.84
2024-01-15T04:52:15.331Z,100462.22
2024-01-15T04:57:11.990Z,100462.16
2024-01-15T05:02:09.288Z,100457.72
2024-01-15T05:07:05.934Z,100465.63
2024-01-15T05:12:02.555Z,100446.88
2024-01-15T05:16:59.066Z,100450.72
2024-01-15T05:21:56.308Z,100443.13
2024-01-15T05:26:52.897Z,100445.63
2024-01-15T05:31:49.601Z,100442.50
2024-01-15T05:36:48.273Z,100427.59
2024-01-15T05:41:45.495Z,100413.88
2024-01-15T05:46:42.030Z,100407.72
2024-01-15T05:51:38.627Z,100403.22
2024-01-15T05:56:35.381Z,100398.72
2024-01-15T06:01:32.680Z,100392.56
2024-01-15T06:06:29.513Z,100398.38
2024-01-15T06:11:30.380Z,100408.72
2024-01-15T06:16:27.207Z,100402.56
2024-01-15T06:21:24.532Z,100406.91
2024-01-15T06:26:21.057Z,100406.00
2024-01-15T06:31:17.719Z,100407.78
2024-01-15T06:36:14.602Z,100407.59
2024-01-15T06:41:12.036Z,100422.38
2024-01-15T06:46:09.164Z,100417.25
2024-01-15T06:51:06.012Z,100412.19
2024-01-15T06:56:02.596Z,100410.72
2024-01-15T07:01:00.096Z,100410.94
2024-01-15T07:05:56.805Z,100407.47
2024-01-15T07:10:53.447Z,100407.31
2024-01-15T07:15:50.715Z,100401.94
2024-01-15T07:20:48.233Z,100408.56
2024-01-15T07:25:44.784Z,100399.66
2024-01-15T07:30:41.535Z,100400.19
2024-01-15T07:35:38.729Z,100395.78
2024-01-15T07:40:37.369Z,100390.50
2024-01-15T07:45:34.084Z,100384.16
2024-01-15T07:50:31.477Z,100382.25
2024-01-15T07:55:28.111Z,100382.88
2024-01-15T08:00:26.959Z,100379.13
2024-01-15T08:05:24.169Z,100384.00
2024-01-15T08:10:20.983Z,100381.06
2024-01-15T08:15:18.777Z,100391.22
2024-01-15T08:20:16.782Z,100377.22
2024-01-15T08:25:14.061Z,100376.38
2024-01-15T08:30:11.430Z,100363.16
2024-01-15T08:35:08.376Z,100363.13
2024-01-15T08:40:06.204Z,100368.91
2024-01-15T08:45:05.386Z,100372.25
2024-01-15T08:50:02.399Z,100371.13
2024-01-15T08:54:59.136Z,100354.63
2024-01-15T08:59:56.487Z,100338.84
2024-01-15T09:04:53.184Z,100327.81
2024-01-15T09:09:51.753Z,100305.59
2024-01-15T09:14:48.393Z,100283.31
2024-01-15T09:19:46.176Z,100270.59
2024-01-15T09:24:43.179Z,100264.09
2024-01-15T09:29:45.601Z,100256.78
2024-01-15T09:34:42.363Z,100248.97
2024-01-15T09:39:39.848Z,100235.28
2024-01-15T09:44:36.524Z,100235.56
2024-01-15T09:49:33.692Z,100220.06
2024-01-15T09:54:30.348Z,100207.53
2024-01-15T09:59:28.057Z,100207.25
2024-01-15T10:04:25.092Z,100219.47
2024-01-15T10:09:21.957Z,100205.53
2024-01-15T10:14:18.523Z,100208.25
2024-01-15T10:19:15.845Z,100205.09
2024-01-15T10:24:13.469Z,100193.59
2024-01-15T10:29:11.306Z,100184.81
2024-01-15T10:34:12.588Z,100156.63
2024-01-15T10:39:10.130Z,100136.47
2024-01-15T10:44:07.026Z,100125.66
2024-01-15T10:49:04.956Z,100115.41
2024-01-15T10:54:02.168Z,100100.28
2024-01-15T10:59:00.938Z,100101.25
2024-01-15T11:03:58.378Z,100080.09
2024-01-15T11:08:55.427Z,100060.22
2024-01-15T11:13:52.939Z,100047.97
2024-01-15T11:19:08.818Z,100031.94
2024-01-15T11:24:11.723Z,100029.09
2024-01-15T11:29:09.099Z,100012.66
2024-01-15T11:34:06.208Z,100009.56
2024-01-15T11:39:30.848Z,100015.63
2024-01-15T11:44:27.758Z,100008.81
2024-01-15T11:49:30.768Z,100026.84
2024-01-15T11:54:33.141Z,100026.06
2024-01-15T11:59:30.043Z,100012.03
2024-01-15T12:04:27.329Z,100000.97
2024-01-15T12:09:25.341Z,99995.34
2024-01-15T12:14:22.962Z,99975.50
2024-01-15T12:19:19.821Z,99978.53
2024-01-15T12:24:17.782Z,99962.00
2024-01-15T12:29:14.496Z,99955.19
2024-01-15T12:34:11.798Z,99951.56
2024-01-15T12:39:14.268Z,99943.69
2024-01-15T12:44:12.188Z,99929.91
2024-01-15T12:49:08.986Z,99931.19
2024-01-15T12:54:15.199Z,99923.25
2024-01-15T12:59:11.702Z,99914.44
2024-01-15T13:04:09.403Z,99921.63
2024-01-15T13:09:06.207Z,99926.31
2024-01-15T13:14:03.482Z,99927.97
2024-01-15T13:19:00.250Z,99919.13
2024-01-15T13:23:56.972Z,99911.34
2024-01-15T13:28:54.057Z,99891.44
2024-01-15T13:33:52.695Z,99883.56
2024-01-15T13:38:50.558Z,99885.09
2024-01-15T13:43:48.797Z,99898.59
2024-01-15T13:48:45.412Z,99892.28
2024-01-15T13:53:51.398Z,99885.25
2024-01-15T13:58:48.808Z,99891.25
2024-01-15T14:03:45.572Z,99883.84
2024-01-15T14:08:42.292Z,99887.03
2024-01-15T14:13:39.506Z,99884.81
2024-01-15T14:18:36.409Z,99881.91
2024-01-15T14:23:33.305Z,99876.88
2024-01-15T14:28:29.851Z,99879.75
2024-01-15T14:33:27.312Z,99876.59
2024-01-15T14:38:23.961Z,99875.28
2024-01-15T14:43:21.723Z,99879.91
2024-01-15T14:48:19.218Z,99873.31
2024-01-15T14:53:16.452Z,99865.59
2024-01-15T14:58:12.947Z,99856.91
2024-01-15T15:03:10.952Z,99872.75
2024-01-15T15:08:09.238Z,99871.44
2024-01-15T15:13:06.752Z,99869.94
2024-01-15T15:18:03.693Z,99874.63
2024-01-15T15:23:00.242Z,99866.25
2024-01-15T15:27:57.016Z,99856.50
2024-01-15T15:32:54.967Z,99849.78
2024-01-15T15:37:53.269Z,99842.31
2024-01-15T15:42:49.906Z,99837.25
2024-01-15T15:47:46.531Z,99834.34
2024-01-15T15:52:43.924Z,99841.34
2024-01-15T15:57:40.586Z,99837.13
2024-01-15T16:02:37.349Z,99836.53
2024-01-15T16:07:36.600Z,99827.38
2024-01-15T16:12:33.869Z,99832.81
2024-01-15T16:23:16.093Z,99841.84
2024-01-15T16:23:43.984Z,99832.88
2024-01-15T16:28:05.845Z,99830.59
2024-01-15T16:33:02.687Z,99830.53
2024-01-15T16:37:59.378Z,99826.25
2024-01-15T16:42:56.163Z,99821.81
2024-01-15T16:47:53.539Z,99817.88
2024-01-15T16:52:52.160Z,99819.34
2024-01-15T16:57:48.714Z,99820.66
2024-01-15T17:02:45.368Z,99817.84
2024-01-15T17:07:42.752Z,99815.34
2024-01-15T17:12:39.346Z,99826.25
2024-01-15T17:17:36.084Z,99829.03
2024-01-15T17:22:36.968Z,99827.66
2024-01-15T17:27:34.242Z,99819.06
2024-01-15T17:32:30.963Z,99819.97
2024-01-15T17:37:27.594Z,99822.47
2024-01-15T17:42:24.248Z,99818.91
2024-01-15T17:47:21.503Z,99822.69
2024-01-15T17:52:18.272Z,99823.47
2024-01-15T17:57:14.923Z,99813.94
2024-01-15T18:02:11.921Z,99795.38
2024-01-15T18:07:09.141Z,99786.66
2024-01-15T18:12:05.884Z,99794.44
2024-01-15T18:17:02.541Z,99782.72
2024-01-15T18:21:59.065Z,99782.16
2024-01-15T18:26:56.263Z,99779.63
2024-01-15T18:31:52.858Z,99771.63
2024-01-15T18:36:50.244Z,99759.28
2024-01-15T18:41:46.965Z,99761.59
2024-01-15T18:46:53.405Z,99746.06
2024-01-15T18:51:53.752Z,99744.56
2024-01-15T18:56:51.887Z,99736.72
2024-01-15T19:01:50.456Z,99736.06
2024-01-15T19:06:49.501Z,99720.25
2024-01-15T19:11:46.331Z,99727.63
2024-01-15T19:16:43.235Z,99725.63
2024-01-15T19:21:39.896Z,99711.75
2024-01-15T19:26:37.147Z,99708.34
2024-01-15T19:31:33.798Z,99697.44
2024-01-15T19:36:30.440Z,99685.56
2024-01-15T19:41:26.983Z,99683.91
2024-01-15T19:46:24.398Z,99677.53
2024-01-15T19:51:20.909Z,99677.47
2024-01-15T19:56:18.034Z,99659.47
2024-01-15T20:01:14.665Z,99650.31
2024-01-15T20:06:13.964Z,99640.97
2024-01-15T20:11:10.868Z,99624.53
2024-01-15T20:16:08.299Z,99629.19
2024-01-15T20:21:05.224Z,99613.34
2024-01-15T20:26:03.381Z,99607.88
2024-01-15T20:30:59.917Z,99580.38
2024-01-15T20:35:56.543Z,99577.03
2024-01-15T20:40:53.069Z,99564.81
2024-01-15T20:45:50.484Z,99565.75
2024-01-15T20:50:47.060Z,99569.88
2024-01-15T20:55:43.985Z,99568.59
2024-01-15T21:00:40.638Z,99568.53
2024-01-15T21:05:37.882Z,99581.22
2024-01-15T21:10:34.544Z,99576.66
2024-01-15T21:15:31.087Z,99561.88
2024-01-15T21:20:27.749Z,99563.53
2024-01-15T21:25:25.023Z,99554.72
2024-01-15T21:30:22.525Z,99541.66
2024-01-15T21:35:19.128Z,99538.34
2024-01-15T21:40:16.381Z,99529.22
2024-01-15T21:45:13.635Z,99527.78
2024-01-15T21:50:10.568Z,99525.91
2024-01-15T21:55:08.557Z,99525.47
2024-01-15T22:00:06.931Z,99517.78
2024-01-15T22:05:08.725Z,99507.25
2024-01-15T22:10:07.836Z,99504.09
2024-01-15T22:15:04.613Z,99508.16
2024-01-15T22:20:01.319Z,99494.72
2024-01-15T22:24:58.559Z,99482.63
2024-01-15T22:29:55.191Z,99472.66
2024-01-15T22:34:51.795Z,99464.25
2024-01-15T22:39:48.889Z,99465.22
2024-01-15T22:44:46.250Z,99455.16
2024-01-15T22:49:43.395Z,99435.06
2024-01-15T22:54:39.894Z,99434.22
2024-01-15T22:59:36.592Z,99429.06
2024-01-15T23:04:33.785Z,99425.09
2024-01-15T23:09:30.352Z,99430.88
2024-01-15T23:14:26.864Z,99436.09
2024-01-15T23:19:23.604Z,99441.47
2024-01-15T23:24:21.018Z,99451.81
2024-01-15T23:29:17.884Z,99468.31
2024-01-15T23:34:14.475Z,99467.91
2024-01-15T23:39:11.263Z,99454.63
2024-01-15T23:44:08.511Z,99457.59
2024-01-15T23:49:05.130Z,99466.13
2024-01-15T23:54:01.700Z,99455.81
2024-01-15T23:58:58.276Z,99466.06
